sensor_id;sensor_type;location;lat;lon;timestamp;P1;durP1;ratioP1;P2;durP2;ratioP2
46417;SDS011;69884;64.758;20.962;2023-05-09T00:01:04;4.50;;;1.60;;
46417;SDS011;69884;64.758;20.962;2023-05-09T00:03:29;3.53;;;1.58;;
46417;SDS011;69884;64.758;20.962;2023-05-09T00:05:55;3.00;;;1.40;;
46417;SDS011;69884;64.758;20.962;2023-05-09T00:08:20;3.07;;;1.40;;
46417;SDS011;69884;64.758;20.962;2023-05-09T00:10:45;4.50;;;1.60;;
46417;SDS011;69884;64.758;20.962;2023-05-09T00:13:11;4.13;;;1.40;;
46417;SDS011;69884;64.758;20.962;2023-05-09T00:15:37;4.35;;;1.63;;
46417;SDS011;69884;64.758;20.962;2023-05-09T00:18:03;3.47;;;1.75;;
46417;SDS011;69884;64.758;20.962;2023-05-09T00:20:28;4.27;;;1.50;;
46417;SDS011;69884;64.758;20.962;2023-05-09T00:22:54;2.05;;;1.65;;
46417;SDS011;69884;64.758;20.962;2023-05-09T00:25:19;4.57;;;1.70;;
46417;SDS011;69884;64.758;20.962;2023-05-09T00:27:44;3.92;;;1.40;;
46417;SDS011;69884;64.758;20.962;2023-05-09T00:30:10;1.80;;;1.57;;
46417;SDS011;69884;64.758;20.962;2023-05-09T00:32:35;3.90;;;1.65;;
46417;SDS011;69884;64.758;20.962;2023-05-09T00:35:01;2.10;;;1.60;;
46417;SDS011;69884;64.758;20.962;2023-05-09T00:37:27;2.42;;;1.30;;
46417;SDS011;69884;64.758;20.962;2023-05-09T00:39:53;3.90;;;1.40;;
46417;SDS011;69884;64.758;20.962;2023-05-09T00:42:18;3.03;;;1.47;;
46417;SDS011;69884;64.758;20.962;2023-05-09T00:44:43;3.92;;;1.55;;
46417;SDS011;69884;64.758;20.962;2023-05-09T00:47:09;2.77;;;1.53;;
46417;SDS011;69884;64.758;20.962;2023-05-09T00:49:34;3.67;;;1.53;;
46417;SDS011;69884;64.758;20.962;2023-05-09T00:51:59;14.57;;;2.67;;
46417;SDS011;69884;64.758;20.962;2023-05-09T00:54:26;12.13;;;2.37;;
46417;SDS011;69884;64.758;20.962;2023-05-09T00:56:51;8.23;;;2.30;;
46417;SDS011;69884;64.758;20.962;2023-05-09T00:59:16;12.37;;;2.33;;
46417;SDS011;69884;64.758;20.962;2023-05-09T01:01:43;8.73;;;1.90;;
46417;SDS011;69884;64.758;20.962;2023-05-09T01:04:08;10.33;;;2.00;;
46417;SDS011;69884;64.758;20.962;2023-05-09T01:09:23;17.00;;;3.10;;
46417;SDS011;69884;64.758;20.962;2023-05-09T01:14:45;12.93;;;2.45;;
46417;SDS011;69884;64.758;20.962;2023-05-09T01:17:25;15.32;;;2.58;;
46417;SDS011;69884;64.758;20.962;2023-05-09T01:20:02;12.40;;;2.92;;
46417;SDS011;69884;64.758;20.962;2023-05-09T01:22:31;10.48;;;2.30;;
46417;SDS011;69884;64.758;20.962;2023-05-09T01:25:11;9.85;;;2.10;;
46417;SDS011;69884;64.758;20.962;2023-05-09T01:30:27;5.38;;;2.15;;
46417;SDS011;69884;64.758;20.962;2023-05-09T01:32:55;7.50;;;2.25;;
46417;SDS011;69884;64.758;20.962;2023-05-09T01:35:22;5.87;;;2.10;;
46417;SDS011;69884;64.758;20.962;2023-05-09T01:37:49;8.97;;;2.60;;
46417;SDS011;69884;64.758;20.962;2023-05-09T01:40:15;5.10;;;2.00;;
46417;SDS011;69884;64.758;20.962;2023-05-09T01:42:42;5.28;;;1.90;;
46417;SDS011;69884;64.758;20.962;2023-05-09T01:45:08;8.70;;;1.95;;
46417;SDS011;69884;64.758;20.962;2023-05-09T01:47:34;5.78;;;2.20;;
46417;SDS011;69884;64.758;20.962;2023-05-09T01:50:01;6.90;;;2.00;;
46417;SDS011;69884;64.758;20.962;2023-05-09T01:52:27;5.85;;;2.25;;
46417;SDS011;69884;64.758;20.962;2023-05-09T01:54:53;3.78;;;1.95;;
46417;SDS011;69884;64.758;20.962;2023-05-09T01:57:18;5.53;;;1.63;;
46417;SDS011;69884;64.758;20.962;2023-05-09T01:59:44;3.97;;;2.03;;
46417;SDS011;69884;64.758;20.962;2023-05-09T02:02:10;6.73;;;2.00;;
46417;SDS011;69884;64.758;20.962;2023-05-09T02:04:36;6.33;;;1.87;;
46417;SDS011;69884;64.758;20.962;2023-05-09T02:07:02;4.32;;;2.03;;
46417;SDS011;69884;64.758;20.962;2023-05-09T02:09:29;4.07;;;2.00;;
46417;SDS011;69884;64.758;20.962;2023-05-09T02:11:54;4.67;;;2.00;;
46417;SDS011;69884;64.758;20.962;2023-05-09T02:14:19;5.95;;;2.15;;
46417;SDS011;69884;64.758;20.962;2023-05-09T02:16:45;4.40;;;2.07;;
46417;SDS011;69884;64.758;20.962;2023-05-09T02:19:10;3.53;;;1.70;;
46417;SDS011;69884;64.758;20.962;2023-05-09T02:21:36;5.07;;;2.07;;
46417;SDS011;69884;64.758;20.962;2023-05-09T02:24:01;5.50;;;2.50;;
46417;SDS011;69884;64.758;20.962;2023-05-09T02:26:27;3.88;;;1.83;;
46417;SDS011;69884;64.758;20.962;2023-05-09T02:28:52;8.07;;;1.87;;
46417;SDS011;69884;64.758;20.962;2023-05-09T02:31:19;5.33;;;2.17;;
46417;SDS011;69884;64.758;20.962;2023-05-09T02:33:44;4.72;;;2.00;;
46417;SDS011;69884;64.758;20.962;2023-05-09T02:36:12;5.00;;;1.80;;
46417;SDS011;69884;64.758;20.962;2023-05-09T02:38:38;7.87;;;2.10;;
46417;SDS011;69884;64.758;20.962;2023-05-09T02:41:03;4.30;;;1.90;;
46417;SDS011;69884;64.758;20.962;2023-05-09T02:43:28;13.15;;;2.40;;
46417;SDS011;69884;64.758;20.962;2023-05-09T02:45:54;12.93;;;2.27;;
46417;SDS011;69884;64.758;20.962;2023-05-09T02:48:19;15.30;;;2.15;;
46417;SDS011;69884;64.758;20.962;2023-05-09T02:50:44;17.27;;;2.60;;
46417;SDS011;69884;64.758;20.962;2023-05-09T02:53:10;31.75;;;5.07;;
46417;SDS011;69884;64.758;20.962;2023-05-09T02:55:35;29.83;;;4.90;;
46417;SDS011;69884;64.758;20.962;2023-05-09T02:58:00;23.80;;;3.45;;
46417;SDS011;69884;64.758;20.962;2023-05-09T03:00:26;22.50;;;3.80;;
46417;SDS011;69884;64.758;20.962;2023-05-09T03:02:51;27.02;;;3.60;;
46417;SDS011;69884;64.758;20.962;2023-05-09T03:05:17;28.37;;;3.30;;
46417;SDS011;69884;64.758;20.962;2023-05-09T03:07:42;15.05;;;3.53;;
46417;SDS011;69884;64.758;20.962;2023-05-09T03:10:08;15.32;;;2.55;;
46417;SDS011;69884;64.758;20.962;2023-05-09T03:12:36;15.48;;;3.05;;
46417;SDS011;69884;64.758;20.962;2023-05-09T03:15:02;10.80;;;2.40;;
46417;SDS011;69884;64.758;20.962;2023-05-09T03:17:28;13.47;;;2.67;;
46417;SDS011;69884;64.758;20.962;2023-05-09T03:19:53;8.85;;;2.15;;
46417;SDS011;69884;64.758;20.962;2023-05-09T03:22:18;16.47;;;2.60;;
46417;SDS011;69884;64.758;20.962;2023-05-09T03:24:44;10.03;;;2.80;;
46417;SDS011;69884;64.758;20.962;2023-05-09T03:27:09;13.03;;;2.27;;
46417;SDS011;69884;64.758;20.962;2023-05-09T03:29:34;7.90;;;2.00;;
46417;SDS011;69884;64.758;20.962;2023-05-09T03:32:00;5.27;;;2.07;;
46417;SDS011;69884;64.758;20.962;2023-05-09T03:34:25;11.47;;;2.47;;
46417;SDS011;69884;64.758;20.962;2023-05-09T03:36:50;16.07;;;2.57;;
46417;SDS011;69884;64.758;20.962;2023-05-09T03:39:15;13.87;;;2.83;;
46417;SDS011;69884;64.758;20.962;2023-05-09T03:41:41;7.57;;;2.10;;
46417;SDS011;69884;64.758;20.962;2023-05-09T03:44:08;3.10;;;1.98;;
46417;SDS011;69884;64.758;20.962;2023-05-09T03:46:33;5.37;;;2.00;;
46417;SDS011;69884;64.758;20.962;2023-05-09T03:48:58;6.97;;;2.30;;
46417;SDS011;69884;64.758;20.962;2023-05-09T03:51:24;9.43;;;2.27;;
46417;SDS011;69884;64.758;20.962;2023-05-09T03:53:49;8.68;;;2.45;;
46417;SDS011;69884;64.758;20.962;2023-05-09T03:56:14;6.53;;;2.53;;
46417;SDS011;69884;64.758;20.962;2023-05-09T03:58:39;9.00;;;2.23;;
46417;SDS011;69884;64.758;20.962;2023-05-09T04:01:05;7.53;;;2.33;;
46417;SDS011;69884;64.758;20.962;2023-05-09T04:03:30;6.70;;;1.90;;
46417;SDS011;69884;64.758;20.962;2023-05-09T04:05:55;10.30;;;2.03;;
46417;SDS011;69884;64.758;20.962;2023-05-09T04:08:21;9.53;;;2.40;;
46417;SDS011;69884;64.758;20.962;2023-05-09T04:10:48;14.63;;;2.80;;
46417;SDS011;69884;64.758;20.962;2023-05-09T04:13:13;16.98;;;3.00;;
46417;SDS011;69884;64.758;20.962;2023-05-09T04:15:38;14.97;;;2.70;;
46417;SDS011;69884;64.758;20.962;2023-05-09T04:18:04;18.15;;;3.17;;
46417;SDS011;69884;64.758;20.962;2023-05-09T04:20:29;9.77;;;2.53;;
46417;SDS011;69884;64.758;20.962;2023-05-09T04:22:55;17.05;;;3.03;;
46417;SDS011;69884;64.758;20.962;2023-05-09T04:25:20;10.23;;;2.20;;
46417;SDS011;69884;64.758;20.962;2023-05-09T04:27:46;11.70;;;2.40;;
46417;SDS011;69884;64.758;20.962;2023-05-09T04:30:11;11.10;;;2.57;;
46417;SDS011;69884;64.758;20.962;2023-05-09T04:32:37;16.30;;;2.50;;
46417;SDS011;69884;64.758;20.962;2023-05-09T04:35:03;9.07;;;2.53;;
46417;SDS011;69884;64.758;20.962;2023-05-09T04:37:28;11.88;;;2.80;;
46417;SDS011;69884;64.758;20.962;2023-05-09T04:39:56;13.30;;;2.63;;
46417;SDS011;69884;64.758;20.962;2023-05-09T04:42:30;10.13;;;3.08;;
46417;SDS011;69884;64.758;20.962;2023-05-09T04:44:57;13.47;;;2.73;;
46417;SDS011;69884;64.758;20.962;2023-05-09T04:47:23;10.93;;;3.33;;
46417;SDS011;69884;64.758;20.962;2023-05-09T04:49:48;12.13;;;2.80;;
46417;SDS011;69884;64.758;20.962;2023-05-09T04:52:13;11.87;;;2.70;;
46417;SDS011;69884;64.758;20.962;2023-05-09T04:54:39;12.43;;;2.80;;
46417;SDS011;69884;64.758;20.962;2023-05-09T04:57:04;12.10;;;3.07;;
46417;SDS011;69884;64.758;20.962;2023-05-09T04:59:30;11.82;;;2.75;;
46417;SDS011;69884;64.758;20.962;2023-05-09T05:01:56;9.48;;;2.80;;
46417;SDS011;69884;64.758;20.962;2023-05-09T05:04:21;7.53;;;2.37;;
46417;SDS011;69884;64.758;20.962;2023-05-09T05:06:46;12.00;;;2.60;;
46417;SDS011;69884;64.758;20.962;2023-05-09T05:09:11;6.75;;;2.30;;
46417;SDS011;69884;64.758;20.962;2023-05-09T05:11:37;9.68;;;2.80;;
46417;SDS011;69884;64.758;20.962;2023-05-09T05:14:03;10.47;;;2.70;;
46417;SDS011;69884;64.758;20.962;2023-05-09T05:16:28;12.43;;;2.50;;
46417;SDS011;69884;64.758;20.962;2023-05-09T05:18:53;7.73;;;2.00;;
46417;SDS011;69884;64.758;20.962;2023-05-09T05:21:18;8.00;;;2.00;;
46417;SDS011;69884;64.758;20.962;2023-05-09T05:23:44;12.80;;;2.13;;
46417;SDS011;69884;64.758;20.962;2023-05-09T05:26:09;14.40;;;2.40;;
46417;SDS011;69884;64.758;20.962;2023-05-09T05:28:34;10.33;;;2.67;;
46417;SDS011;69884;64.758;20.962;2023-05-09T05:31:00;11.43;;;2.10;;
46417;SDS011;69884;64.758;20.962;2023-05-09T05:33:25;12.63;;;2.75;;
46417;SDS011;69884;64.758;20.962;2023-05-09T05:35:56;11.33;;;2.50;;
46417;SDS011;69884;64.758;20.962;2023-05-09T05:38:21;17.42;;;2.58;;
46417;SDS011;69884;64.758;20.962;2023-05-09T05:40:47;5.30;;;1.70;;
46417;SDS011;69884;64.758;20.962;2023-05-09T05:43:12;6.10;;;1.87;;
46417;SDS011;69884;64.758;20.962;2023-05-09T05:45:37;12.88;;;2.22;;
46417;SDS011;69884;64.758;20.962;2023-05-09T05:48:03;7.80;;;2.07;;
46417;SDS011;69884;64.758;20.962;2023-05-09T05:50:28;10.53;;;2.10;;
46417;SDS011;69884;64.758;20.962;2023-05-09T05:52:53;22.77;;;3.03;;
46417;SDS011;69884;64.758;20.962;2023-05-09T05:55:18;21.17;;;3.33;;
46417;SDS011;69884;64.758;20.962;2023-05-09T05:57:44;15.23;;;2.60;;
46417;SDS011;69884;64.758;20.962;2023-05-09T06:00:11;12.35;;;2.63;;
46417;SDS011;69884;64.758;20.962;2023-05-09T06:02:40;8.63;;;2.03;;
46417;SDS011;69884;64.758;20.962;2023-05-09T06:05:06;11.25;;;1.75;;
46417;SDS011;69884;64.758;20.962;2023-05-09T06:07:33;11.90;;;2.23;;
46417;SDS011;69884;64.758;20.962;2023-05-09T06:09:58;13.75;;;2.38;;
46417;SDS011;69884;64.758;20.962;2023-05-09T06:12:24;13.40;;;2.50;;
46417;SDS011;69884;64.758;20.962;2023-05-09T06:14:49;18.97;;;3.37;;
46417;SDS011;69884;64.758;20.962;2023-05-09T06:17:15;16.02;;;2.70;;
46417;SDS011;69884;64.758;20.962;2023-05-09T06:19:40;14.23;;;2.70;;
46417;SDS011;69884;64.758;20.962;2023-05-09T06:22:05;13.90;;;2.63;;
46417;SDS011;69884;64.758;20.962;2023-05-09T06:24:30;15.23;;;2.50;;
46417;SDS011;69884;64.758;20.962;2023-05-09T06:26:55;12.07;;;2.47;;
46417;SDS011;69884;64.758;20.962;2023-05-09T06:29:21;12.30;;;2.60;;
46417;SDS011;69884;64.758;20.962;2023-05-09T06:31:46;8.80;;;2.10;;
46417;SDS011;69884;64.758;20.962;2023-05-09T06:34:11;9.37;;;2.10;;
46417;SDS011;69884;64.758;20.962;2023-05-09T06:36:37;10.83;;;2.30;;
46417;SDS011;69884;64.758;20.962;2023-05-09T06:39:02;10.50;;;1.90;;
46417;SDS011;69884;64.758;20.962;2023-05-09T06:41:28;13.43;;;2.40;;
46417;SDS011;69884;64.758;20.962;2023-05-09T06:43:53;7.47;;;1.90;;
46417;SDS011;69884;64.758;20.962;2023-05-09T06:46:18;9.80;;;2.03;;
46417;SDS011;69884;64.758;20.962;2023-05-09T06:48:43;11.10;;;2.20;;
46417;SDS011;69884;64.758;20.962;2023-05-09T06:51:09;8.23;;;1.83;;
46417;SDS011;69884;64.758;20.962;2023-05-09T06:53:35;4.85;;;1.92;;
46417;SDS011;69884;64.758;20.962;2023-05-09T06:56:00;9.93;;;2.40;;
46417;SDS011;69884;64.758;20.962;2023-05-09T06:58:26;8.00;;;2.23;;
46417;SDS011;69884;64.758;20.962;2023-05-09T07:00:52;5.90;;;2.05;;
46417;SDS011;69884;64.758;20.962;2023-05-09T07:03:17;12.02;;;2.35;;
46417;SDS011;69884;64.758;20.962;2023-05-09T07:05:43;8.90;;;1.80;;
46417;SDS011;69884;64.758;20.962;2023-05-09T07:08:08;4.10;;;1.77;;
46417;SDS011;69884;64.758;20.962;2023-05-09T07:10:33;2.97;;;1.40;;
46417;SDS011;69884;64.758;20.962;2023-05-09T07:12:59;5.87;;;1.60;;
46417;SDS011;69884;64.758;20.962;2023-05-09T07:15:24;4.00;;;1.80;;
46417;SDS011;69884;64.758;20.962;2023-05-09T07:17:49;3.33;;;1.60;;
46417;SDS011;69884;64.758;20.962;2023-05-09T07:20:15;4.17;;;1.63;;
46417;SDS011;69884;64.758;20.962;2023-05-09T07:22:40;8.27;;;1.83;;
46417;SDS011;69884;64.758;20.962;2023-05-09T07:25:06;3.00;;;1.80;;
46417;SDS011;69884;64.758;20.962;2023-05-09T07:27:32;4.43;;;1.42;;
46417;SDS011;69884;64.758;20.962;2023-05-09T07:29:57;2.55;;;1.40;;
46417;SDS011;69884;64.758;20.962;2023-05-09T07:32:23;2.10;;;1.50;;
46417;SDS011;69884;64.758;20.962;2023-05-09T07:34:49;5.32;;;1.55;;
46417;SDS011;69884;64.758;20.962;2023-05-09T07:37:14;10.93;;;2.17;;
46417;SDS011;69884;64.758;20.962;2023-05-09T07:39:39;6.97;;;1.40;;
46417;SDS011;69884;64.758;20.962;2023-05-09T07:42:05;2.77;;;1.30;;
46417;SDS011;69884;64.758;20.962;2023-05-09T07:44:30;6.10;;;1.63;;
46417;SDS011;69884;64.758;20.962;2023-05-09T07:46:55;5.40;;;1.60;;
46417;SDS011;69884;64.758;20.962;2023-05-09T07:49:23;6.05;;;1.70;;
46417;SDS011;69884;64.758;20.962;2023-05-09T07:51:48;4.27;;;1.30;;
46417;SDS011;69884;64.758;20.962;2023-05-09T07:54:13;5.17;;;1.43;;
46417;SDS011;69884;64.758;20.962;2023-05-09T07:56:39;5.50;;;1.67;;
46417;SDS011;69884;64.758;20.962;2023-05-09T07:59:04;3.45;;;1.38;;
46417;SDS011;69884;64.758;20.962;2023-05-09T08:01:29;5.33;;;1.40;;
46417;SDS011;69884;64.758;20.962;2023-05-09T08:03:55;3.10;;;1.50;;
46417;SDS011;69884;64.758;20.962;2023-05-09T08:06:20;2.47;;;1.30;;
46417;SDS011;69884;64.758;20.962;2023-05-09T08:08:45;4.73;;;1.53;;
46417;SDS011;69884;64.758;20.962;2023-05-09T08:11:10;4.87;;;1.50;;
46417;SDS011;69884;64.758;20.962;2023-05-09T08:13:36;8.50;;;1.70;;
46417;SDS011;69884;64.758;20.962;2023-05-09T08:16:01;4.70;;;1.37;;
46417;SDS011;69884;64.758;20.962;2023-05-09T08:18:26;1.60;;;1.30;;
46417;SDS011;69884;64.758;20.962;2023-05-09T08:20:52;6.07;;;2.13;;
46417;SDS011;69884;64.758;20.962;2023-05-09T08:23:17;6.63;;;1.90;;
46417;SDS011;69884;64.758;20.962;2023-05-09T08:25:44;3.45;;;1.50;;
46417;SDS011;69884;64.758;20.962;2023-05-09T08:28:10;4.03;;;1.60;;
46417;SDS011;69884;64.758;20.962;2023-05-09T08:30:35;20.27;;;3.00;;
46417;SDS011;69884;64.758;20.962;2023-05-09T08:33:00;5.47;;;1.60;;
46417;SDS011;69884;64.758;20.962;2023-05-09T08:35:26;6.68;;;1.52;;
46417;SDS011;69884;64.758;20.962;2023-05-09T08:37:51;8.63;;;1.60;;
46417;SDS011;69884;64.758;20.962;2023-05-09T08:40:16;4.00;;;1.60;;
46417;SDS011;69884;64.758;20.962;2023-05-09T08:42:42;13.60;;;1.90;;
46417;SDS011;69884;64.758;20.962;2023-05-09T08:45:09;3.95;;;1.40;;
46417;SDS011;69884;64.758;20.962;2023-05-09T08:47:34;6.53;;;1.55;;
46417;SDS011;69884;64.758;20.962;2023-05-09T08:50:01;6.65;;;1.38;;
46417;SDS011;69884;64.758;20.962;2023-05-09T08:52:28;8.37;;;1.43;;
46417;SDS011;69884;64.758;20.962;2023-05-09T08:54:53;4.78;;;1.17;;
46417;SDS011;69884;64.758;20.962;2023-05-09T08:57:19;7.75;;;1.65;;
46417;SDS011;69884;64.758;20.962;2023-05-09T08:59:45;3.83;;;1.42;;
46417;SDS011;69884;64.758;20.962;2023-05-09T09:02:10;4.28;;;1.50;;
46417;SDS011;69884;64.758;20.962;2023-05-09T09:04:38;7.05;;;1.42;;
46417;SDS011;69884;64.758;20.962;2023-05-09T09:07:04;5.13;;;1.45;;
46417;SDS011;69884;64.758;20.962;2023-05-09T09:09:33;7.05;;;1.50;;
46417;SDS011;69884;64.758;20.962;2023-05-09T09:12:00;4.35;;;1.45;;
46417;SDS011;69884;64.758;20.962;2023-05-09T09:14:26;6.13;;;1.30;;
46417;SDS011;69884;64.758;20.962;2023-05-09T09:16:53;2.67;;;1.10;;
46417;SDS011;69884;64.758;20.962;2023-05-09T09:19:19;4.60;;;1.58;;
46417;SDS011;69884;64.758;20.962;2023-05-09T09:21:46;6.15;;;1.65;;
46417;SDS011;69884;64.758;20.962;2023-05-09T09:24:13;7.60;;;1.40;;
46417;SDS011;69884;64.758;20.962;2023-05-09T09:26:47;3.90;;;1.23;;
46417;SDS011;69884;64.758;20.962;2023-05-09T09:29:13;2.83;;;1.27;;
46417;SDS011;69884;64.758;20.962;2023-05-09T09:31:38;2.90;;;1.60;;
46417;SDS011;69884;64.758;20.962;2023-05-09T09:34:07;2.53;;;1.43;;
46417;SDS011;69884;64.758;20.962;2023-05-09T09:36:33;4.13;;;1.85;;
46417;SDS011;69884;64.758;20.962;2023-05-09T09:39:01;3.30;;;1.40;;
46417;SDS011;69884;64.758;20.962;2023-05-09T09:41:35;7.30;;;1.83;;
46417;SDS011;69884;64.758;20.962;2023-05-09T09:44:07;4.90;;;1.60;;
46417;SDS011;69884;64.758;20.962;2023-05-09T09:46:42;7.53;;;1.83;;
46417;SDS011;69884;64.758;20.962;2023-05-09T09:49:09;4.10;;;1.60;;
46417;SDS011;69884;64.758;20.962;2023-05-09T09:51:34;17.73;;;2.30;;
46417;SDS011;69884;64.758;20.962;2023-05-09T09:54:00;7.97;;;2.03;;
46417;SDS011;69884;64.758;20.962;2023-05-09T09:56:45;8.38;;;2.00;;
46417;SDS011;69884;64.758;20.962;2023-05-09T09:59:18;9.13;;;1.80;;
46417;SDS011;69884;64.758;20.962;2023-05-09T10:04:18;10.93;;;1.90;;
46417;SDS011;69884;64.758;20.962;2023-05-09T10:06:51;7.07;;;2.07;;
46417;SDS011;69884;64.758;20.962;2023-05-09T10:09:17;10.53;;;2.23;;
46417;SDS011;69884;64.758;20.962;2023-05-09T10:11:42;7.53;;;1.70;;
46417;SDS011;69884;64.758;20.962;2023-05-09T10:14:07;13.73;;;2.20;;
46417;SDS011;69884;64.758;20.962;2023-05-09T10:16:33;5.57;;;1.70;;
46417;SDS011;69884;64.758;20.962;2023-05-09T10:18:58;4.03;;;1.80;;
46417;SDS011;69884;64.758;20.962;2023-05-09T10:21:23;7.33;;;1.90;;
46417;SDS011;69884;64.758;20.962;2023-05-09T10:23:49;5.07;;;1.70;;
46417;SDS011;69884;64.758;20.962;2023-05-09T10:26:16;7.88;;;1.88;;
46417;SDS011;69884;64.758;20.962;2023-05-09T10:28:46;6.47;;;2.10;;
46417;SDS011;69884;64.758;20.962;2023-05-09T10:31:15;8.55;;;1.80;;
46417;SDS011;69884;64.758;20.962;2023-05-09T10:33:54;10.93;;;2.22;;
46417;SDS011;69884;64.758;20.962;2023-05-09T10:36:40;7.87;;;1.97;;
46417;SDS011;69884;64.758;20.962;2023-05-09T10:39:05;5.88;;;2.10;;
46417;SDS011;69884;64.758;20.962;2023-05-09T10:41:31;4.65;;;1.60;;
46417;SDS011;69884;64.758;20.962;2023-05-09T10:43:57;8.63;;;2.10;;
46417;SDS011;69884;64.758;20.962;2023-05-09T10:46:23;6.60;;;1.80;;
46417;SDS011;69884;64.758;20.962;2023-05-09T10:48:48;4.37;;;1.73;;
46417;SDS011;69884;64.758;20.962;2023-05-09T10:51:14;10.53;;;2.00;;
46417;SDS011;69884;64.758;20.962;2023-05-09T10:56:09;6.60;;;2.03;;
46417;SDS011;69884;64.758;20.962;2023-05-09T10:58:46;7.45;;;2.05;;
46417;SDS011;69884;64.758;20.962;2023-05-09T11:01:11;9.90;;;2.13;;
46417;SDS011;69884;64.758;20.962;2023-05-09T11:03:53;6.10;;;1.73;;
46417;SDS011;69884;64.758;20.962;2023-05-09T11:11:52;3.53;;;1.70;;
46417;SDS011;69884;64.758;20.962;2023-05-09T11:14:37;5.78;;;1.50;;
46417;SDS011;69884;64.758;20.962;2023-05-09T11:17:03;4.28;;;1.67;;
46417;SDS011;69884;64.758;20.962;2023-05-09T11:20:11;7.13;;;2.30;;
46417;SDS011;69884;64.758;20.962;2023-05-09T11:22:21;7.35;;;1.73;;
46417;SDS011;69884;64.758;20.962;2023-05-09T11:24:47;5.78;;;1.80;;
46417;SDS011;69884;64.758;20.962;2023-05-09T11:27:19;7.10;;;1.90;;
46417;SDS011;69884;64.758;20.962;2023-05-09T11:29:46;4.57;;;1.67;;
46417;SDS011;69884;64.758;20.962;2023-05-09T11:32:13;5.15;;;1.70;;
46417;SDS011;69884;64.758;20.962;2023-05-09T11:34:41;7.65;;;1.63;;
46417;SDS011;69884;64.758;20.962;2023-05-09T11:37:10;18.40;;;2.60;;
46417;SDS011;69884;64.758;20.962;2023-05-09T11:39:54;5.30;;;1.75;;
46417;SDS011;69884;64.758;20.962;2023-05-09T11:42:19;3.95;;;1.73;;
46417;SDS011;69884;64.758;20.962;2023-05-09T11:44:45;6.75;;;1.60;;
46417;SDS011;69884;64.758;20.962;2023-05-09T11:47:12;6.07;;;2.35;;
46417;SDS011;69884;64.758;20.962;2023-05-09T11:49:41;8.30;;;2.00;;
46417;SDS011;69884;64.758;20.962;2023-05-09T11:52:06;6.57;;;2.30;;
46417;SDS011;69884;64.758;20.962;2023-05-09T11:54:32;8.23;;;1.87;;
46417;SDS011;69884;64.758;20.962;2023-05-09T11:56:57;5.97;;;2.03;;
46417;SDS011;69884;64.758;20.962;2023-05-09T11:59:23;5.53;;;1.90;;
46417;SDS011;69884;64.758;20.962;2023-05-09T12:01:49;5.40;;;1.70;;
46417;SDS011;69884;64.758;20.962;2023-05-09T12:04:14;5.67;;;1.83;;
46417;SDS011;69884;64.758;20.962;2023-05-09T12:06:45;9.43;;;2.33;;
46417;SDS011;69884;64.758;20.962;2023-05-09T12:09:10;5.23;;;1.93;;
46417;SDS011;69884;64.758;20.962;2023-05-09T12:11:36;4.63;;;2.00;;
46417;SDS011;69884;64.758;20.962;2023-05-09T12:14:02;7.95;;;2.22;;
46417;SDS011;69884;64.758;20.962;2023-05-09T12:16:27;6.57;;;2.00;;
46417;SDS011;69884;64.758;20.962;2023-05-09T12:18:53;4.37;;;1.90;;
46417;SDS011;69884;64.758;20.962;2023-05-09T12:21:19;5.25;;;1.70;;
46417;SDS011;69884;64.758;20.962;2023-05-09T12:23:45;11.80;;;2.13;;
46417;SDS011;69884;64.758;20.962;2023-05-09T12:26:10;6.07;;;1.85;;
46417;SDS011;69884;64.758;20.962;2023-05-09T12:28:36;6.27;;;1.97;;
46417;SDS011;69884;64.758;20.962;2023-05-09T12:31:02;10.63;;;2.60;;
46417;SDS011;69884;64.758;20.962;2023-05-09T12:33:28;7.57;;;2.03;;
46417;SDS011;69884;64.758;20.962;2023-05-09T12:38:28;5.77;;;2.07;;
46417;SDS011;69884;64.758;20.962;2023-05-09T12:41:04;7.35;;;1.95;;
46417;SDS011;69884;64.758;20.962;2023-05-09T12:43:33;8.43;;;2.30;;
46417;SDS011;69884;64.758;20.962;2023-05-09T12:45:59;18.63;;;2.75;;
46417;SDS011;69884;64.758;20.962;2023-05-09T12:48:25;10.57;;;2.38;;
46417;SDS011;69884;64.758;20.962;2023-05-09T12:50:51;4.50;;;1.85;;
46417;SDS011;69884;64.758;20.962;2023-05-09T12:53:26;8.97;;;2.20;;
46417;SDS011;69884;64.758;20.962;2023-05-09T12:55:53;7.15;;;2.00;;
46417;SDS011;69884;64.758;20.962;2023-05-09T12:58:19;5.97;;;1.90;;
46417;SDS011;69884;64.758;20.962;2023-05-09T13:00:45;7.57;;;2.30;;
46417;SDS011;69884;64.758;20.962;2023-05-09T13:03:26;8.93;;;2.13;;
46417;SDS011;69884;64.758;20.962;2023-05-09T13:05:57;8.63;;;2.00;;
46417;SDS011;69884;64.758;20.962;2023-05-09T13:08:23;6.28;;;2.40;;
46417;SDS011;69884;64.758;20.962;2023-05-09T13:10:48;14.03;;;2.43;;
46417;SDS011;69884;64.758;20.962;2023-05-09T13:13:14;6.40;;;1.80;;
46417;SDS011;69884;64.758;20.962;2023-05-09T13:15:39;8.57;;;2.20;;
46417;SDS011;69884;64.758;20.962;2023-05-09T13:18:04;11.93;;;2.70;;
46417;SDS011;69884;64.758;20.962;2023-05-09T13:20:30;5.03;;;1.93;;
46417;SDS011;69884;64.758;20.962;2023-05-09T13:22:55;5.70;;;1.90;;
46417;SDS011;69884;64.758;20.962;2023-05-09T13:25:21;5.63;;;2.00;;
46417;SDS011;69884;64.758;20.962;2023-05-09T13:27:46;12.73;;;2.47;;
46417;SDS011;69884;64.758;20.962;2023-05-09T13:30:12;9.03;;;2.10;;
46417;SDS011;69884;64.758;20.962;2023-05-09T13:32:39;8.38;;;1.80;;
46417;SDS011;69884;64.758;20.962;2023-05-09T13:35:05;10.77;;;2.50;;
46417;SDS011;69884;64.758;20.962;2023-05-09T13:37:32;22.17;;;3.63;;
46417;SDS011;69884;64.758;20.962;2023-05-09T13:39:57;5.70;;;1.80;;
46417;SDS011;69884;64.758;20.962;2023-05-09T13:42:22;6.23;;;2.00;;
46417;SDS011;69884;64.758;20.962;2023-05-09T13:44:48;5.63;;;2.00;;
46417;SDS011;69884;64.758;20.962;2023-05-09T13:47:13;4.47;;;2.03;;
46417;SDS011;69884;64.758;20.962;2023-05-09T13:49:38;8.67;;;2.50;;
46417;SDS011;69884;64.758;20.962;2023-05-09T13:52:04;9.05;;;2.10;;
46417;SDS011;69884;64.758;20.962;2023-05-09T13:54:29;4.97;;;1.88;;
46417;SDS011;69884;64.758;20.962;2023-05-09T13:57:00;8.98;;;2.00;;
46417;SDS011;69884;64.758;20.962;2023-05-09T13:59:25;4.72;;;1.92;;
46417;SDS011;69884;64.758;20.962;2023-05-09T14:01:51;5.60;;;2.20;;
46417;SDS011;69884;64.758;20.962;2023-05-09T14:04:16;8.80;;;1.97;;
46417;SDS011;69884;64.758;20.962;2023-05-09T14:06:41;8.70;;;2.10;;
46417;SDS011;69884;64.758;20.962;2023-05-09T14:09:12;8.05;;;2.10;;
46417;SDS011;69884;64.758;20.962;2023-05-09T14:11:37;7.82;;;2.20;;
46417;SDS011;69884;64.758;20.962;2023-05-09T14:14:02;15.90;;;2.97;;
46417;SDS011;69884;64.758;20.962;2023-05-09T14:16:28;7.93;;;2.30;;
46417;SDS011;69884;64.758;20.962;2023-05-09T14:18:53;6.40;;;2.17;;
46417;SDS011;69884;64.758;20.962;2023-05-09T14:21:19;9.00;;;2.30;;
46417;SDS011;69884;64.758;20.962;2023-05-09T14:23:44;13.43;;;2.90;;
46417;SDS011;69884;64.758;20.962;2023-05-09T14:26:09;7.97;;;2.22;;
46417;SDS011;69884;64.758;20.962;2023-05-09T14:28:34;8.67;;;2.20;;
46417;SDS011;69884;64.758;20.962;2023-05-09T14:31:01;9.80;;;2.33;;
46417;SDS011;69884;64.758;20.962;2023-05-09T14:33:27;5.63;;;2.10;;
46417;SDS011;69884;64.758;20.962;2023-05-09T14:35:53;6.53;;;2.08;;
46417;SDS011;69884;64.758;20.962;2023-05-09T14:38:18;10.97;;;2.63;;
46417;SDS011;69884;64.758;20.962;2023-05-09T14:40:45;3.85;;;1.95;;
46417;SDS011;69884;64.758;20.962;2023-05-09T14:43:10;5.07;;;2.10;;
46417;SDS011;69884;64.758;20.962;2023-05-09T14:45:36;4.25;;;1.73;;
46417;SDS011;69884;64.758;20.962;2023-05-09T14:48:01;6.80;;;2.20;;